La Porte, California
Current Conditions -  °F | °C
As of 5:52 PM on Sunday 25 Jan 2015 (Local Time) from KBLU Reporting Station
Clear Clear  
Wind Chill: 61°   Ceiling: Unl
Heat Index: 61°   Visibility: 10mi
Dew Point: 20°   Wind: 6mph
Humidity: 21%   Direction: 50°NE
Pressure: 30.2"   Gusts: NA
Location:  39.6938°N, 121.001°W
Report Text: KBLU 260152Z AUTO 05005KT 10SM CLR 16/M07 A3020 RMK AO2 SLP159 T01611067
Loading
Personal Weather Stations






























Interactive Weather Map New forecast layout! Learn more

10-Day Weather Forecast

Advertisements
Track Severe Weather on mobile